Time;durP1;ratioP1;P1;durP2;ratioP2;P2;SDS_P1;SDS_P2;PMS_P1;PMS_P2;Temp;Humidity;BMP_temperature;BMP_pressure;BME280_temperature;BME280_humidity;BME280_pressure;Samples;Min_cycle;Max_cycle;Signal;HPM_P1;HPM_P2
2023/08/12 00:01:49;;;;;;;4.60;2.80;;;;;;;28.92;37.32;101283.15;104060;1284;62579;-83
2023/08/12 00:04:15;;;;;;;5.90;3.40;;;;;;;28.91;37.03;101280.14;103934;1284;61329;-83
2023/08/12 00:06:41;;;;;;;5.00;3.20;;;;;;;28.90;37.09;101276.73;103904;1290;61925;-83
2023/08/12 00:09:08;;;;;;;4.90;3.30;;;;;;;28.91;37.21;101274.55;103943;1285;61325;-82
2023/08/12 00:11:38;;;;;;;5.30;3.10;;;;;;;28.90;37.18;101266.98;103935;1285;61373;-83
2023/08/12 00:14:04;;;;;;;4.30;2.70;;;;;;;28.90;37.23;101267.56;103867;1290;61272;-82
2023/08/12 00:16:30;;;;;;;4.30;2.80;;;;;;;28.90;37.05;101266.07;103947;1284;61412;-83
2023/08/12 00:18:55;;;;;;;5.50;2.90;;;;;;;28.90;37.48;101269.16;103765;1285;61396;-83
2023/08/12 00:21:21;;;;;;;4.70;3.10;;;;;;;28.91;37.21;101265.86;103928;1290;61379;-83
2023/08/12 00:23:47;;;;;;;4.30;2.80;;;;;;;28.90;37.31;101266.41;103881;1284;61422;-83
2023/08/12 00:26:13;;;;;;;5.60;3.30;;;;;;;28.90;37.42;101265.02;103944;1290;61368;-83
2023/08/12 00:28:39;;;;;;;4.20;2.70;;;;;;;28.90;37.44;101261.77;103893;1290;61334;-83
2023/08/12 00:31:05;;;;;;;4.30;3.00;;;;;;;28.90;37.13;101267.50;103900;1285;61755;-83
2023/08/12 00:33:30;;;;;;;4.10;2.80;;;;;;;28.90;37.36;101269.74;104027;1287;61366;-81
2023/08/12 00:35:56;;;;;;;4.40;2.70;;;;;;;28.89;37.28;101267.97;103856;1286;61402;-83
2023/08/12 00:38:21;;;;;;;4.60;2.90;;;;;;;28.90;37.25;101269.95;103726;1287;61390;-83
2023/08/12 00:40:48;;;;;;;4.50;3.00;;;;;;;28.89;37.51;101266.16;103863;1290;61323;-83
2023/08/12 00:43:13;;;;;;;3.80;2.80;;;;;;;28.90;37.44;101265.05;103732;1287;61431;-83
2023/08/12 00:45:39;;;;;;;4.20;2.80;;;;;;;28.89;37.46;101265.42;103896;1288;61568;-83
2023/08/12 00:48:06;;;;;;;4.80;3.00;;;;;;;28.89;37.38;101267.25;103663;1290;61303;-82
2023/08/12 00:50:31;;;;;;;4.40;2.90;;;;;;;28.89;37.41;101267.59;103641;1286;61350;-83
2023/08/12 00:52:58;;;;;;;4.20;3.00;;;;;;;28.89;37.49;101263.81;103702;1290;61488;-83
2023/08/12 00:55:23;;;;;;;4.40;2.90;;;;;;;28.89;37.60;101265.28;103733;1288;61400;-82
2023/08/12 00:57:50;;;;;;;4.00;2.80;;;;;;;28.89;37.45;101266.19;103805;1288;61584;-83
2023/08/12 01:00:16;;;;;;;5.30;3.30;;;;;;;28.88;37.43;101263.88;103861;1286;61294;-83
2023/08/12 01:02:47;;;;;;;5.30;3.00;;;;;;;28.89;37.40;101264.80;103588;1293;61303;-82
2023/08/12 01:05:15;;;;;;;4.90;3.10;;;;;;;28.88;37.40;101265.01;104006;1288;65801;-83
2023/08/12 01:07:42;;;;;;;3.90;2.70;;;;;;;28.89;37.45;101266.80;103577;1284;61332;-82
2023/08/12 01:10:09;;;;;;;3.60;2.50;;;;;;;28.88;37.61;101265.16;103817;1288;61315;-83
2023/08/12 01:12:50;;;;;;;4.20;2.90;;;;;;;28.88;37.50;101261.39;103833;1290;63863;-83
2023/08/12 01:15:23;;;;;;;4.90;3.10;;;;;;;28.88;37.47;101264.14;103818;1287;65920;-83
2023/08/12 01:17:52;;;;;;;3.90;2.70;;;;;;;28.88;37.29;101261.80;103746;1287;61338;-83
2023/08/12 01:20:26;;;;;;;4.60;3.00;;;;;;;28.88;37.49;101263.60;103826;1287;61399;-83
2023/08/12 01:23:14;;;;;;;4.20;2.90;;;;;;;28.87;37.47;101262.75;103779;1291;63900;-82
2023/08/12 01:25:40;;;;;;;4.00;2.70;;;;;;;28.87;37.68;101263.86;103351;1290;65650;-83
2023/08/12 01:28:06;;;;;;;4.10;2.90;;;;;;;28.87;37.56;101262.77;103471;1291;61844;-82
2023/08/12 01:30:35;;;;;;;4.50;3.10;;;;;;;28.87;37.24;101260.42;103428;1294;61524;-83
2023/08/12 01:33:14;;;;;;;4.00;2.70;;;;;;;28.87;37.38;101263.32;103605;1294;64041;-83
2023/08/12 01:35:43;;;;;;;4.30;3.00;;;;;;;28.86;37.64;101263.75;103493;1289;65808;-83
2023/08/12 01:38:09;;;;;;;5.80;2.80;;;;;;;28.86;37.50;101264.80;103500;1292;61291;-82
2023/08/12 01:40:35;;;;;;;3.60;2.60;;;;;;;28.86;37.54;101263.21;103316;1291;61480;-83
2023/08/12 01:43:03;;;;;;;4.30;2.80;;;;;;;28.86;37.30;101262.29;103434;1290;61444;-82
2023/08/12 01:45:30;;;;;;;7.00;3.00;;;;;;;28.86;37.40;101264.12;103556;1290;65859;-82
2023/08/12 01:47:56;;;;;;;4.10;3.10;;;;;;;28.86;37.46;101265.75;103485;1290;61375;-83
2023/08/12 01:50:22;;;;;;;4.60;3.00;;;;;;;28.86;37.42;101269.19;103408;1291;62247;-83
2023/08/12 01:52:47;;;;;;;4.20;2.70;;;;;;;28.86;37.49;101272.45;103446;1293;61338;-83
2023/08/12 01:55:12;;;;;;;4.30;3.00;;;;;;;28.86;37.32;101271.53;103475;1291;61338;-82
2023/08/12 01:57:38;;;;;;;4.80;3.00;;;;;;;28.86;37.46;101272.98;103738;1291;61454;-83
2023/08/12 02:00:06;;;;;;;4.50;2.80;;;;;;;28.86;37.56;101273.23;103848;1287;61352;-83
2023/08/12 02:02:31;;;;;;;4.30;3.00;;;;;;;28.86;37.56;101274.69;103742;1286;61200;-83
2023/08/12 02:04:57;;;;;;;4.80;3.20;;;;;;;28.85;37.58;101271.08;103732;1288;61354;-82
2023/08/12 02:07:23;;;;;;;4.50;3.00;;;;;;;28.85;37.54;101272.38;103832;1287;62387;-83
2023/08/12 02:09:49;;;;;;;5.00;3.00;;;;;;;28.86;37.45;101274.86;103853;1287;61403;-83
2023/08/12 02:12:14;;;;;;;4.40;3.00;;;;;;;28.86;37.55;101277.75;103766;1291;61838;-83
2023/08/12 02:14:42;;;;;;;3.90;2.70;;;;;;;28.85;37.58;101277.46;103663;1293;61715;-83
2023/08/12 02:17:08;;;;;;;4.10;2.90;;;;;;;28.85;37.54;101279.83;103863;1288;61300;-83
2023/08/12 02:19:33;;;;;;;4.10;3.00;;;;;;;28.85;37.51;101280.19;103818;1287;61409;-83
2023/08/12 02:22:01;;;;;;;6.10;3.20;;;;;;;28.85;37.29;101281.12;103861;1288;61252;-83
2023/08/12 02:24:26;;;;;;;4.50;2.80;;;;;;;28.85;37.34;101279.50;103588;1286;61403;-83
2023/08/12 02:26:52;;;;;;;4.20;2.90;;;;;;;28.84;37.51;101280.82;104025;1286;61308;-83
2023/08/12 02:29:18;;;;;;;4.40;3.00;;;;;;;28.84;37.44;101284.79;103823;1287;61373;-82
2023/08/12 02:31:44;;;;;;;5.00;2.80;;;;;;;28.85;37.65;101288.02;103736;1286;61458;-82
2023/08/12 02:34:10;;;;;;;4.60;2.90;;;;;;;28.85;37.51;101290.73;103526;1286;62085;-83
2023/08/12 02:36:36;;;;;;;4.70;3.00;;;;;;;28.84;37.61;101289.85;103739;1286;61287;-83
2023/08/12 02:39:01;;;;;;;4.00;2.90;;;;;;;28.84;37.61;101291.34;103603;1286;61395;-83
2023/08/12 02:41:27;;;;;;;4.70;3.30;;;;;;;28.84;37.68;101295.33;103753;1288;61418;-83
2023/08/12 02:43:52;;;;;;;5.40;3.00;;;;;;;28.84;37.74;101301.15;103886;1290;61406;-83
2023/08/12 02:46:18;;;;;;;4.00;3.10;;;;;;;28.84;37.54;101298.60;103994;1286;61351;-83
2023/08/12 02:48:49;;;;;;;4.50;3.20;;;;;;;28.84;37.55;101302.60;103912;1288;61416;-83
2023/08/12 02:51:15;;;;;;;4.70;3.20;;;;;;;28.83;37.77;101302.44;103794;1288;65647;-83
2023/08/12 02:53:40;;;;;;;4.50;3.10;;;;;;;28.83;37.65;101305.15;103738;1288;62455;-83
2023/08/12 02:56:06;;;;;;;4.60;3.00;;;;;;;28.84;37.60;101307.66;104017;1286;61286;-83
2023/08/12 02:58:31;;;;;;;4.00;3.00;;;;;;;28.82;37.68;101305.81;103713;1292;62273;-82
2023/08/12 03:00:57;;;;;;;4.20;2.80;;;;;;;28.83;37.84;101308.30;103681;1292;61412;-83
2023/08/12 03:03:22;;;;;;;4.60;2.90;;;;;;;28.82;37.74;101311.04;103727;1286;65663;-83
2023/08/12 03:05:48;;;;;;;4.60;3.10;;;;;;;28.83;37.73;101312.08;103894;1290;61261;-83
2023/08/12 03:08:14;;;;;;;4.20;2.90;;;;;;;28.83;37.84;101314.11;103736;1288;61832;-83
2023/08/12 03:10:40;;;;;;;4.50;3.10;;;;;;;28.82;37.75;101311.76;103438;1291;61364;-83
2023/08/12 03:13:06;;;;;;;4.20;2.90;;;;;;;28.82;37.75;101313.82;103812;1288;61437;-82
2023/08/12 03:15:31;;;;;;;4.80;3.20;;;;;;;28.83;37.51;101311.92;103788;1286;61488;-82
2023/08/12 03:17:57;;;;;;;4.20;3.00;;;;;;;28.82;37.78;101314.30;103987;1288;62343;-82
2023/08/12 03:20:23;;;;;;;4.60;3.20;;;;;;;28.82;37.56;101314.84;103769;1286;62084;-83
2023/08/12 03:22:48;;;;;;;4.30;3.10;;;;;;;28.82;37.62;101319.77;103767;1288;61328;-82
2023/08/12 03:25:15;;;;;;;4.90;3.00;;;;;;;28.82;37.63;101322.66;104004;1286;61788;-83
2023/08/12 03:27:41;;;;;;;4.70;3.40;;;;;;;28.82;37.67;101324.16;103817;1288;61387;-83
2023/08/12 03:30:07;;;;;;;4.50;3.20;;;;;;;28.82;37.66;101323.75;103692;1288;61200;-83
2023/08/12 03:32:34;;;;;;;5.00;3.10;;;;;;;28.82;37.70;101326.46;103871;1288;61252;-82
2023/08/12 03:35:00;;;;;;;4.30;3.20;;;;;;;28.82;37.67;101329.73;103535;1292;61355;-82
2023/08/12 03:37:25;;;;;;;4.40;3.40;;;;;;;28.82;37.54;101327.73;103806;1290;61381;-83
2023/08/12 03:39:51;;;;;;;3.70;2.80;;;;;;;28.82;37.94;101327.79;103835;1288;63067;-82
2023/08/12 03:42:17;;;;;;;4.50;3.20;;;;;;;28.82;37.82;101326.69;103702;1288;61295;-81
2023/08/12 03:44:43;;;;;;;4.70;3.30;;;;;;;28.82;37.77;101330.23;103924;1290;61390;-82
2023/08/12 03:47:09;;;;;;;4.60;3.20;;;;;;;28.82;37.76;101332.80;104473;1285;61803;-82
2023/08/12 03:49:34;;;;;;;4.30;3.10;;;;;;;28.82;37.73;101340.09;104599;1288;62495;-82
2023/08/12 03:52:00;;;;;;;4.30;3.20;;;;;;;28.82;37.64;101344.57;104438;1290;61411;-82
2023/08/12 03:54:26;;;;;;;4.70;3.40;;;;;;;28.83;37.58;101346.11;103770;1290;61359;-83
2023/08/12 03:56:51;;;;;;;4.30;2.90;;;;;;;28.84;37.86;101343.30;103778;1291;61478;-83
2023/08/12 03:59:17;;;;;;;4.30;2.90;;;;;;;28.84;37.84;101349.85;103789;1290;65912;-83
2023/08/12 04:01:43;;;;;;;4.60;3.20;;;;;;;28.85;37.82;101346.89;103735;1288;61408;-82
2023/08/12 04:04:08;;;;;;;4.20;3.20;;;;;;;28.85;37.49;101347.98;103671;1286;61419;-82
2023/08/12 04:06:34;;;;;;;4.80;3.10;;;;;;;28.85;37.64;101350.14;103957;1285;62452;-83
2023/08/12 04:09:00;;;;;;;4.40;3.10;;;;;;;28.85;37.56;101357.71;103883;1290;61263;-82
2023/08/12 04:11:25;;;;;;;4.40;3.20;;;;;;;28.85;37.52;101357.15;103802;1290;61387;-83
2023/08/12 04:13:51;;;;;;;4.50;3.10;;;;;;;28.85;37.83;101359.31;103834;1287;61514;-83
2023/08/12 04:16:17;;;;;;;4.50;3.20;;;;;;;28.85;37.72;101359.17;103926;1285;61999;-83
2023/08/12 04:18:45;;;;;;;4.10;3.10;;;;;;;28.85;37.55;101359.72;103967;1288;61404;-83
2023/08/12 04:21:11;;;;;;;5.40;3.10;;;;;;;28.85;37.55;101359.17;103977;1287;61406;-82
2023/08/12 04:23:36;;;;;;;4.50;3.20;;;;;;;28.85;37.70;101361.55;103687;1287;61829;-82
2023/08/12 04:26:02;;;;;;;5.00;3.30;;;;;;;28.85;37.51;101365.69;103842;1286;61297;-83
2023/08/12 04:28:27;;;;;;;4.40;3.20;;;;;;;28.84;37.59;101374.42;103852;1290;62506;-83
2023/08/12 04:30:53;;;;;;;4.40;3.00;;;;;;;28.85;37.70;101380.17;103817;1290;61402;-82
2023/08/12 04:33:21;;;;;;;4.50;3.30;;;;;;;28.85;37.62;101377.85;103739;1288;65955;-83
2023/08/12 04:35:48;;;;;;;4.60;3.10;;;;;;;28.85;37.70;101379.82;103789;1289;61642;-83
2023/08/12 04:38:13;;;;;;;4.60;3.30;;;;;;;28.85;37.52;101383.47;103738;1293;61403;-83
2023/08/12 04:40:39;;;;;;;4.80;3.20;;;;;;;28.84;37.54;101381.04;103804;1286;61380;-83
2023/08/12 04:43:05;;;;;;;5.70;3.20;;;;;;;28.83;37.46;101380.86;103939;1290;61254;-82
2023/08/12 04:45:32;;;;;;;4.70;3.10;;;;;;;28.85;37.66;101377.31;103745;1290;61397;-83
2023/08/12 04:47:57;;;;;;;4.10;3.30;;;;;;;28.85;37.44;101379.63;103749;1290;61408;-83
2023/08/12 04:50:23;;;;;;;4.20;3.20;;;;;;;28.84;37.73;101373.96;103955;1286;61411;-83
2023/08/12 04:52:48;;;;;;;5.20;3.60;;;;;;;28.84;37.78;101372.50;103866;1288;63863;-83
2023/08/12 04:55:14;;;;;;;5.40;3.30;;;;;;;28.84;37.86;101375.56;103678;1292;61377;-83
2023/08/12 04:57:40;;;;;;;3.90;3.00;;;;;;;28.84;37.84;101380.63;103827;1290;61336;-83
2023/08/12 05:00:08;;;;;;;4.50;3.40;;;;;;;28.84;37.60;101382.29;103628;1292;61341;-82
2023/08/12 05:02:34;;;;;;;4.50;3.30;;;;;;;28.84;37.69;101386.27;103816;1288;61413;-83
2023/08/12 05:05:00;;;;;;;5.50;3.40;;;;;;;28.84;37.70;101388.44;103661;1291;61343;-83
2023/08/12 05:07:26;;;;;;;4.30;3.20;;;;;;;28.84;37.54;101389.35;103846;1286;61270;-82
2023/08/12 05:09:52;;;;;;;4.60;3.20;;;;;;;28.84;37.57;101392.25;103865;1287;61402;-82
2023/08/12 05:12:17;;;;;;;4.40;3.30;;;;;;;28.84;37.76;101395.48;103905;1291;61394;-83
2023/08/12 05:14:43;;;;;;;4.30;3.30;;;;;;;28.85;37.48;101399.15;103844;1291;61749;-83
2023/08/12 05:17:08;;;;;;;4.80;3.40;;;;;;;28.85;37.74;101398.23;103860;1287;65730;-82
2023/08/12 05:19:34;;;;;;;5.90;3.40;;;;;;;28.86;37.70;101399.27;103852;1292;61418;-83
2023/08/12 05:22:00;;;;;;;4.40;3.50;;;;;;;28.87;37.77;101403.37;103708;1291;62586;-83
2023/08/12 05:24:25;;;;;;;4.50;3.30;;;;;;;28.88;37.54;101400.73;103802;1291;61302;-83
2023/08/12 05:26:51;;;;;;;5.10;3.20;;;;;;;28.88;37.81;101399.58;103918;1290;61402;-82
2023/08/12 05:29:16;;;;;;;4.60;3.30;;;;;;;28.89;37.62;101402.55;103783;1291;65913;-83
2023/08/12 05:31:42;;;;;;;5.00;3.10;;;;;;;28.90;37.75;101403.38;103935;1286;61473;-83
2023/08/12 05:34:08;;;;;;;4.80;3.10;;;;;;;28.91;38.15;101402.74;103820;1287;62554;-83
2023/08/12 05:36:33;;;;;;;4.40;3.20;;;;;;;28.92;38.05;101405.94;103735;1286;61924;-83
2023/08/12 05:38:58;;;;;;;4.20;3.00;;;;;;;28.93;38.21;101409.26;103737;1286;61353;-83
2023/08/12 05:41:24;;;;;;;5.50;3.10;;;;;;;28.94;38.36;101404.86;103834;1287;65780;-83
2023/08/12 05:43:50;;;;;;;4.70;3.20;;;;;;;28.95;38.38;101404.96;103808;1291;61441;-83
2023/08/12 05:46:15;;;;;;;4.50;3.00;;;;;;;28.95;38.32;101407.64;103555;1291;61390;-83
2023/08/12 05:48:41;;;;;;;4.40;3.20;;;;;;;28.96;38.25;101412.11;103710;1290;61877;-83
2023/08/12 05:51:06;;;;;;;3.90;2.90;;;;;;;28.97;38.35;101411.50;103727;1291;61384;-83
2023/08/12 05:53:32;;;;;;;5.10;3.20;;;;;;;28.97;38.45;101409.84;103892;1291;66073;-83
2023/08/12 05:55:59;;;;;;;4.50;3.20;;;;;;;28.98;38.75;101410.85;103831;1290;61302;-83
2023/08/12 05:58:24;;;;;;;4.10;3.10;;;;;;;28.98;38.40;101410.08;103698;1292;61320;-83
2023/08/12 06:00:50;;;;;;;4.50;3.30;;;;;;;28.99;38.53;101406.41;103903;1290;61315;-83
2023/08/12 06:03:16;;;;;;;4.90;3.20;;;;;;;28.99;38.64;101405.27;103811;1289;62190;-82
2023/08/12 06:05:45;;;;;;;4.00;3.10;;;;;;;29.00;38.49;101408.48;103757;1292;61433;-83
2023/08/12 06:08:11;;;;;;;4.70;3.10;;;;;;;29.00;38.60;101407.05;103820;1287;61424;-83
2023/08/12 06:10:37;;;;;;;4.10;3.10;;;;;;;29.01;38.67;101402.07;103741;1289;61378;-83
2023/08/12 06:13:03;;;;;;;3.90;3.10;;;;;;;29.01;38.77;101401.44;103525;1291;61371;-82
2023/08/12 06:15:28;;;;;;;4.80;2.90;;;;;;;29.02;38.85;101400.67;103849;1286;62431;-83
2023/08/12 06:17:54;;;;;;;4.50;3.20;;;;;;;29.03;38.82;101399.66;103575;1286;61387;-83
2023/08/12 06:20:19;;;;;;;5.30;3.10;;;;;;;29.03;38.54;101396.53;103915;1290;61417;-83
2023/08/12 06:22:45;;;;;;;4.90;3.00;;;;;;;29.04;38.73;101396.47;103854;1287;61332;-82
2023/08/12 06:25:10;;;;;;;4.20;3.30;;;;;;;29.05;38.59;101396.04;103780;1292;61384;-83
2023/08/12 06:27:36;;;;;;;4.30;3.10;;;;;;;29.05;38.74;101398.55;103765;1286;61709;-82
2023/08/12 06:30:02;;;;;;;4.60;3.40;;;;;;;29.06;38.78;101405.54;103555;1291;61338;-83
2023/08/12 06:32:28;;;;;;;4.20;3.10;;;;;;;29.06;38.58;101410.73;103666;1289;61283;-83
2023/08/12 06:34:53;;;;;;;4.50;3.30;;;;;;;29.07;38.52;101404.70;103912;1286;61415;-83
2023/08/12 06:37:19;;;;;;;4.60;3.40;;;;;;;29.08;38.49;101411.14;103697;1288;61555;-83
2023/08/12 06:39:44;;;;;;;4.30;3.30;;;;;;;29.08;38.61;101404.55;103547;1290;314415;-83
2023/08/12 06:42:10;;;;;;;4.80;3.20;;;;;;;29.09;38.48;101408.16;103805;1290;62474;-82
2023/08/12 06:44:36;;;;;;;4.60;3.40;;;;;;;29.09;38.37;101411.20;103870;1287;61385;-83
2023/08/12 06:47:01;;;;;;;6.20;3.70;;;;;;;29.09;38.40;101414.80;103576;1291;62141;-83
2023/08/12 06:49:27;;;;;;;4.90;3.10;;;;;;;29.10;38.25;101410.18;103938;1289;66049;-82
2023/08/12 06:51:52;;;;;;;4.50;3.20;;;;;;;29.11;38.17;101408.66;103646;1291;61474;-82
2023/08/12 06:54:18;;;;;;;4.50;3.20;;;;;;;29.11;38.37;101412.83;103757;1291;69424;-83
2023/08/12 06:56:44;;;;;;;4.60;3.50;;;;;;;29.12;38.27;101407.90;103883;1286;62495;-82
2023/08/12 06:59:10;;;;;;;4.70;3.40;;;;;;;29.12;38.09;101401.69;103782;1287;61331;-83
2023/08/12 07:01:36;;;;;;;4.40;3.30;;;;;;;29.13;37.99;101403.77;103932;1290;61304;-83
2023/08/12 07:04:02;;;;;;;4.30;3.40;;;;;;;29.14;37.93;101403.48;103613;1286;61389;-82
2023/08/12 07:06:28;;;;;;;4.40;3.20;;;;;;;29.13;38.07;101406.80;103819;1286;61267;-83
2023/08/12 07:08:54;;;;;;;4.10;3.10;;;;;;;29.14;37.84;101403.48;103956;1290;61496;-83
2023/08/12 07:11:19;;;;;;;4.30;3.40;;;;;;;29.15;37.78;101405.63;103818;1286;61360;-83
2023/08/12 07:13:46;;;;;;;4.00;3.20;;;;;;;29.15;37.81;101405.05;103839;1288;61380;-83
2023/08/12 07:16:11;;;;;;;3.90;3.10;;;;;;;29.16;38.03;101403.67;103691;1286;61482;-83
2023/08/12 07:18:37;;;;;;;4.80;3.30;;;;;;;29.16;38.09;101403.30;103899;1286;61394;-83
2023/08/12 07:21:03;;;;;;;4.20;3.10;;;;;;;29.17;38.08;101405.23;103956;1286;61396;-82
2023/08/12 07:23:28;;;;;;;4.20;3.30;;;;;;;29.16;37.97;101409.59;103565;1291;65626;-82
2023/08/12 07:25:54;;;;;;;5.30;3.50;;;;;;;29.17;37.90;101408.88;103889;1288;62487;-83
2023/08/12 07:28:20;;;;;;;4.50;3.20;;;;;;;29.17;37.90;101404.86;103560;1286;61478;-83
2023/08/12 07:30:45;;;;;;;4.90;3.10;;;;;;;29.17;37.93;101406.85;103746;1289;61309;-83
2023/08/12 07:33:11;;;;;;;5.20;3.40;;;;;;;29.18;37.79;101400.05;103857;1287;61386;-82
2023/08/12 07:35:36;;;;;;;3.90;2.90;;;;;;;29.18;38.08;101405.48;103870;1289;65608;-82
2023/08/12 07:38:02;;;;;;;3.90;3.10;;;;;;;29.18;37.97;101410.34;103879;1287;61414;-83
2023/08/12 07:40:27;;;;;;;4.10;3.00;;;;;;;29.18;37.84;101409.22;103599;1286;62367;-83
2023/08/12 07:42:53;;;;;;;4.70;3.50;;;;;;;29.19;37.86;101407.73;103845;1290;61401;-83
2023/08/12 07:45:18;;;;;;;4.70;3.40;;;;;;;29.19;38.00;101404.63;103832;1289;61735;-82
2023/08/12 07:47:44;;;;;;;4.20;3.10;;;;;;;29.19;37.96;101405.55;103783;1291;65702;-83
2023/08/12 07:50:10;;;;;;;4.60;3.20;;;;;;;29.19;38.05;101404.63;103818;1286;61483;-83
2023/08/12 07:52:36;;;;;;;4.50;3.20;;;;;;;29.19;37.85;101402.43;103859;1287;61386;-83
2023/08/12 07:55:02;;;;;;;4.20;3.10;;;;;;;29.20;37.93;101393.88;103939;1288;61442;-82
2023/08/12 07:57:28;;;;;;;4.10;3.10;;;;;;;29.21;38.07;101401.59;103769;1290;61414;-83
2023/08/12 07:59:53;;;;;;;4.70;3.40;;;;;;;29.20;37.82;101395.30;103789;1290;62404;-83
2023/08/12 08:02:19;;;;;;;4.50;3.30;;;;;;;29.21;37.99;101398.50;103887;1288;61443;-83
2023/08/12 08:04:48;;;;;;;5.20;3.40;;;;;;;29.20;37.75;101393.09;103865;1286;61471;-82
2023/08/12 08:07:16;;;;;;;4.00;3.20;;;;;;;29.21;37.66;101394.52;103979;1286;63606;-82
2023/08/12 08:09:43;;;;;;;4.40;3.20;;;;;;;29.20;37.79;101394.16;103992;1287;61374;-83
2023/08/12 08:12:10;;;;;;;4.30;3.10;;;;;;;29.21;37.83;101396.30;103818;1287;62219;-83
2023/08/12 08:14:36;;;;;;;4.20;3.10;;;;;;;29.21;37.69;101398.65;103893;1287;61402;-82
2023/08/12 08:17:03;;;;;;;4.50;3.30;;;;;;;29.21;37.65;101394.44;103859;1285;63844;-83
2023/08/12 08:19:29;;;;;;;4.90;3.40;;;;;;;29.21;37.66;101399.70;103452;1287;64716;-83
2023/08/12 08:21:54;;;;;;;4.60;3.20;;;;;;;29.21;37.90;101400.80;103988;1289;61475;-82
2023/08/12 08:24:20;;;;;;;5.40;3.30;;;;;;;29.21;37.58;101400.21;103976;1286;61248;-82
2023/08/12 08:26:46;;;;;;;4.50;3.30;;;;;;;29.22;37.53;101396.55;104017;1290;61383;-81
2023/08/12 08:29:13;;;;;;;4.10;2.90;;;;;;;29.22;37.61;101397.66;103914;1290;61395;-82
2023/08/12 08:31:39;;;;;;;5.00;3.20;;;;;;;29.22;37.67;101403.45;103855;1286;62595;-83
2023/08/12 08:34:04;;;;;;;4.50;3.30;;;;;;;29.22;37.80;101406.36;103890;1286;61309;-83
2023/08/12 08:36:30;;;;;;;4.10;3.30;;;;;;;29.23;37.69;101394.48;103951;1288;61457;-83
2023/08/12 08:38:56;;;;;;;4.30;3.40;;;;;;;29.22;37.79;101396.52;103784;1290;61366;-83
2023/08/12 08:41:21;;;;;;;4.50;3.40;;;;;;;29.22;37.71;101399.23;103895;1287;62584;-83
2023/08/12 08:43:48;;;;;;;4.40;3.30;;;;;;;29.22;37.61;101393.12;103845;1286;61296;-83
2023/08/12 08:46:16;;;;;;;5.00;3.50;;;;;;;29.21;37.73;101392.23;103915;1288;61422;-83
2023/08/12 08:48:42;;;;;;;4.50;3.40;;;;;;;29.22;37.66;101390.02;103946;1287;63984;-82
2023/08/12 08:51:09;;;;;;;4.00;3.10;;;;;;;29.21;37.66;101391.71;103688;1287;61389;-83
2023/08/12 08:53:39;;;;;;;3.90;3.40;;;;;;;29.21;37.69;101390.08;103880;1285;62356;-83
2023/08/12 08:56:11;;;;;;;4.10;3.20;;;;;;;29.21;37.66;101387.16;103835;1287;61290;-83
2023/08/12 08:58:39;;;;;;;4.70;3.30;;;;;;;29.21;37.62;101387.02;103898;1289;63782;-83
2023/08/12 09:01:06;;;;;;;5.00;3.40;;;;;;;29.21;37.51;101387.53;103842;1288;61473;-83
2023/08/12 09:03:32;;;;;;;4.50;3.40;;;;;;;29.21;37.69;101385.36;103852;1292;61351;-83
2023/08/12 09:05:57;;;;;;;4.60;3.30;;;;;;;29.21;37.79;101381.21;103864;1287;61766;-83
2023/08/12 09:08:23;;;;;;;4.50;3.20;;;;;;;29.21;37.81;101379.20;103816;1288;61421;-83
2023/08/12 09:10:48;;;;;;;4.60;3.30;;;;;;;29.21;37.60;101379.95;103719;1292;61532;-83
2023/08/12 09:13:15;;;;;;;4.50;3.30;;;;;;;29.21;37.78;101381.78;103875;1286;61389;-83
2023/08/12 09:15:40;;;;;;;5.20;3.40;;;;;;;29.21;37.74;101381.41;103939;1287;61442;-83
2023/08/12 09:18:06;;;;;;;4.20;3.20;;;;;;;29.21;37.77;101377.43;103901;1287;61402;-82
2023/08/12 09:20:35;;;;;;;4.90;3.50;;;;;;;29.21;37.77;101374.00;103865;1290;61285;-83
2023/08/12 09:23:01;;;;;;;;;;;;;;;29.21;37.60;101367.85;103793;1291;65681;-82
2023/08/12 09:25:27;;;;;;;3.80;3.10;;;;;;;29.19;37.73;101371.69;103791;1286;61488;-83
2023/08/12 09:27:55;;;;;;;4.70;3.50;;;;;;;29.19;37.78;101368.20;103901;1286;61996;-83
2023/08/12 09:30:20;;;;;;;5.40;3.50;;;;;;;29.19;37.55;101364.02;103930;1286;63690;-83
2023/08/12 09:33:03;;;;;;;4.10;3.00;;;;;;;29.19;37.60;101359.51;103933;1289;61318;-83
2023/08/12 09:35:37;;;;;;;4.50;3.50;;;;;;;29.18;37.61;101357.96;103821;1288;61929;-83
2023/08/12 09:38:03;;;;;;;4.30;3.20;;;;;;;29.18;37.78;101356.85;103852;1286;61268;-83
2023/08/12 09:40:30;;;;;;;4.60;3.40;;;;;;;29.19;37.81;101353.55;103811;1287;63612;-83
2023/08/12 09:42:56;;;;;;;4.20;3.20;;;;;;;29.19;37.84;101352.09;103772;1286;65902;-83
2023/08/12 09:45:28;;;;;;;4.70;3.50;;;;;;;29.19;37.84;101352.98;103890;1286;61394;-82
2023/08/12 09:47:57;;;;;;;5.80;3.60;;;;;;;29.19;37.65;101351.17;103968;1286;61298;-83
2023/08/12 09:50:26;;;;;;;5.00;3.50;;;;;;;29.19;37.72;101343.02;103940;1285;63646;-83
2023/08/12 09:52:52;;;;;;;5.20;3.60;;;;;;;29.19;37.62;101338.47;103689;1291;74448;-83
2023/08/12 09:55:23;;;;;;;5.70;3.40;;;;;;;29.19;37.63;101336.33;103769;1286;61799;-83
2023/08/12 09:57:54;;;;;;;4.70;3.40;;;;;;;29.19;37.58;101331.05;103891;1286;61265;-83
2023/08/12 10:00:23;;;;;;;4.20;3.30;;;;;;;29.19;37.75;101333.61;103790;1288;71611;-83
2023/08/12 10:02:51;;;;;;;4.20;3.20;;;;;;;29.19;37.67;101333.09;103917;1286;66188;-83
2023/08/12 10:05:35;;;;;;;4.90;3.20;;;;;;;29.18;37.75;101330.73;103996;1286;61220;-83
2023/08/12 10:08:03;;;;;;;4.90;3.40;;;;;;;29.18;37.83;101331.35;103870;1288;61301;-83
2023/08/12 10:10:30;;;;;;;4.50;3.50;;;;;;;29.18;37.73;101330.92;103936;1288;63557;-83
2023/08/12 10:12:56;;;;;;;4.40;3.10;;;;;;;29.18;37.72;101324.77;103898;1292;65958;-83
2023/08/12 10:15:22;;;;;;;4.40;3.10;;;;;;;29.18;37.80;101323.30;103846;1288;61393;-82
2023/08/12 10:17:48;;;;;;;4.60;3.40;;;;;;;29.19;37.69;101322.21;103860;1286;61399;-83
2023/08/12 10:20:25;;;;;;;4.00;3.10;;;;;;;29.19;37.64;101326.91;103836;1286;61414;-83
2023/08/12 10:22:51;;;;;;;4.70;3.30;;;;;;;29.19;37.80;101321.09;103909;1288;65640;-82
2023/08/12 10:25:18;;;;;;;4.40;3.20;;;;;;;29.18;37.55;101317.89;103802;1287;61379;-83
2023/08/12 10:27:44;;;;;;;4.80;3.20;;;;;;;29.18;37.63;101313.55;103890;1290;61301;-83
2023/08/12 10:30:10;;;;;;;3.80;3.00;;;;;;;29.18;37.56;101317.52;103799;1287;61417;-83
2023/08/12 10:32:37;;;;;;;4.70;3.50;;;;;;;29.18;37.62;101307.77;103783;1291;61464;-83
2023/08/12 10:35:02;;;;;;;4.30;3.20;;;;;;;29.18;37.62;101304.09;103863;1286;61376;-82
2023/08/12 10:37:32;;;;;;;3.90;3.10;;;;;;;29.18;37.78;101301.98;103582;1286;61379;-82
2023/08/12 10:39:57;;;;;;;4.50;3.50;;;;;;;29.18;37.74;101301.45;103887;1286;64853;-83
2023/08/12 10:42:44;;;;;;;3.90;3.00;;;;;;;29.18;37.90;101301.27;103736;1286;62639;-83
2023/08/12 10:45:12;;;;;;;4.60;3.60;;;;;;;29.16;37.67;101299.97;103898;1286;61341;-83
2023/08/12 10:47:58;;;;;;;4.00;3.10;;;;;;;29.17;37.76;101299.93;103813;1286;61351;-83
2023/08/12 10:50:25;;;;;;;4.90;3.40;;;;;;;29.16;37.75;101292.36;103755;1287;65151;-83
2023/08/12 10:52:55;;;;;;;4.20;3.10;;;;;;;29.17;37.57;101290.32;103818;1286;62579;-83
2023/08/12 10:55:26;;;;;;;5.20;3.30;;;;;;;29.17;37.74;101294.30;103931;1287;61351;-82
2023/08/12 10:57:58;;;;;;;4.10;3.20;;;;;;;29.16;37.83;101290.20;103917;1287;61229;-83
2023/08/12 11:00:25;;;;;;;4.00;3.20;;;;;;;29.16;37.61;101282.94;103996;1287;61393;-83
2023/08/12 11:02:52;;;;;;;4.20;3.20;;;;;;;29.16;37.62;101285.17;103923;1289;61468;-83
2023/08/12 11:05:20;;;;;;;5.40;3.40;;;;;;;29.16;37.81;101281.17;103842;1286;61306;-83
2023/08/12 11:08:00;;;;;;;4.30;3.30;;;;;;;29.16;37.70;101274.61;103513;1287;61366;-83
2023/08/12 11:10:34;;;;;;;4.80;3.30;;;;;;;29.15;37.65;101273.45;103885;1286;64083;-82
2023/08/12 11:13:00;;;;;;;4.90;3.30;;;;;;;29.16;37.69;101271.58;103907;1288;61409;-83
2023/08/12 11:15:33;;;;;;;4.30;3.20;;;;;;;29.16;37.63;101270.84;103792;1286;61389;-82